createdAt,value
2018-07-01T00:00:26.057Z,71.10
2018-07-01T00:02:28.174Z,71.00
2018-07-01T00:04:30.286Z,71.10
2018-07-01T00:06:32.399Z,71.30
2018-07-01T00:08:34.474Z,71.50
2018-07-01T00:10:36.576Z,71.00
2018-07-01T00:12:38.723Z,71.10
2018-07-01T00:14:41.036Z,71.20
2018-07-01T00:16:43.133Z,71.50
2018-07-01T00:18:45.250Z,71.60
2018-07-01T00:20:47.384Z,71.80
2018-07-01T00:22:49.486Z,72.30
2018-07-01T00:24:51.589Z,72.90
2018-07-01T00:26:53.786Z,72.30
2018-07-01T00:28:55.863Z,71.90
2018-07-01T00:30:57.963Z,72.40
2018-07-01T00:33:00.065Z,73.00
2018-07-01T00:35:02.158Z,73.10
2018-07-01T00:37:04.288Z,72.30
2018-07-01T00:39:07.905Z,72.50
2018-07-01T00:41:09.977Z,72.40
2018-07-01T00:43:12.105Z,72.20
2018-07-01T00:45:14.195Z,72.40
2018-07-01T00:47:16.289Z,72.80
2018-07-01T00:49:18.370Z,72.50
2018-07-01T00:51:20.458Z,72.90
2018-07-01T00:53:22.537Z,72.60
2018-07-01T00:55:24.642Z,72.20
2018-07-01T00:57:26.721Z,72.40
2018-07-01T00:59:28.818Z,72.40
2018-07-01T01:01:31.009Z,72.50
2018-07-01T01:03:33.099Z,72.20
2018-07-01T01:05:35.191Z,72.30
2018-07-01T01:07:37.303Z,72.30
2018-07-01T01:09:39.379Z,72.40
2018-07-01T01:11:41.485Z,72.10
2018-07-01T01:13:43.673Z,71.80
2018-07-01T01:15:45.742Z,71.90
2018-07-01T01:17:47.935Z,72.10
2018-07-01T01:19:50.113Z,71.90
2018-07-01T01:21:52.234Z,71.80
2018-07-01T01:23:54.329Z,72.00
2018-07-01T01:25:56.785Z,71.90
2018-07-01T01:27:58.877Z,71.70
2018-07-01T01:30:00.973Z,71.50
2018-07-01T01:32:03.130Z,71.00
2018-07-01T01:34:05.273Z,71.10
2018-07-01T01:36:07.401Z,71.40
2018-07-01T01:38:09.531Z,71.30
2018-07-01T01:40:13.970Z,71.50
2018-07-01T01:42:23.786Z,71.60
2018-07-01T01:44:31.622Z,72.00
2018-07-01T01:47:37.156Z,72.50
2018-07-01T01:49:45.569Z,72.60
2018-07-01T01:52:00.290Z,72.90
2018-07-01T01:54:06.619Z,73.10
2018-07-01T01:56:48.190Z,72.90
2018-07-01T01:58:52.967Z,73.00
2018-07-01T02:01:30.280Z,72.80
2018-07-01T02:03:40.432Z,73.00
2018-07-01T02:05:49.345Z,73.00
2018-07-01T02:08:59.946Z,73.30
2018-07-01T02:11:02.059Z,73.80
2018-07-01T02:13:04.167Z,74.20
2018-07-01T02:15:09.586Z,74.40
2018-07-01T02:17:16.226Z,74.10
2018-07-01T02:19:18.330Z,74.40
2018-07-01T02:21:20.453Z,74.20
2018-07-01T02:23:27.735Z,74.80
2018-07-01T02:25:31.645Z,74.60
2018-07-01T02:27:33.754Z,73.90
2018-07-01T02:29:35.842Z,74.00
2018-07-01T02:31:37.931Z,74.00
2018-07-01T02:33:40.169Z,74.40
2018-07-01T02:35:42.253Z,74.40
2018-07-01T02:37:44.333Z,74.70
2018-07-01T02:39:46.465Z,74.60
2018-07-01T02:41:48.566Z,74.70
2018-07-01T02:43:50.717Z,74.70
2018-07-01T02:45:52.826Z,74.70
2018-07-01T02:47:54.981Z,74.40
2018-07-01T02:49:57.077Z,74.80
2018-07-01T02:51:59.186Z,75.50
2018-07-01T02:54:01.290Z,75.50
2018-07-01T02:56:03.624Z,75.70
2018-07-01T02:58:05.717Z,75.50
2018-07-01T03:00:07.817Z,75.60
2018-07-01T03:04:12.035Z,75.70
2018-07-01T03:06:14.165Z,75.70
2018-07-01T03:08:16.342Z,75.50
2018-07-01T03:10:18.425Z,75.40
2018-07-01T03:12:20.503Z,75.20
2018-07-01T03:14:22.642Z,74.90
2018-07-01T03:16:24.746Z,75.30
2018-07-01T03:18:26.847Z,75.40
2018-07-01T03:20:28.973Z,75.30
2018-07-01T03:22:31.061Z,75.10
2018-07-01T03:24:33.166Z,74.40
2018-07-01T03:26:35.250Z,74.40
2018-07-01T03:28:37.350Z,73.70
2018-07-01T03:30:39.450Z,72.90
2018-07-01T03:32:41.562Z,72.30
2018-07-01T03:34:43.663Z,72.20
2018-07-01T03:36:45.745Z,72.30
2018-07-01T03:38:47.922Z,72.60
2018-07-01T03:40:50.014Z,72.90
2018-07-01T03:42:52.116Z,72.80
2018-07-01T03:44:54.194Z,73.50
2018-07-01T03:46:56.335Z,73.40
2018-07-01T03:48:58.441Z,73.20
2018-07-01T03:51:00.586Z,73.30
2018-07-01T03:53:02.721Z,73.40
2018-07-01T03:57:07.356Z,73.50
2018-07-01T04:01:11.590Z,73.60
2018-07-01T04:03:13.697Z,73.60
2018-07-01T04:05:15.797Z,74.10
2018-07-01T04:07:17.882Z,73.60
2018-07-01T04:09:19.972Z,74.20
2018-07-01T04:11:22.058Z,74.40
2018-07-01T04:13:24.150Z,74.20
2018-07-01T04:15:26.242Z,74.70
2018-07-01T04:17:28.345Z,74.80
2018-07-01T04:19:35.070Z,74.10
2018-07-01T04:21:37.163Z,74.80
2018-07-01T04:23:39.289Z,74.70
2018-07-01T04:25:41.371Z,75.20
2018-07-01T04:27:43.457Z,74.60
2018-07-01T04:29:45.534Z,75.10
2018-07-01T04:31:47.619Z,75.50
2018-07-01T04:33:49.722Z,74.70
2018-07-01T04:35:51.812Z,75.30
2018-07-01T04:37:53.881Z,75.10
2018-07-01T04:39:55.965Z,75.00
2018-07-01T04:41:58.245Z,74.20
2018-07-01T04:44:00.306Z,74.20
2018-07-01T04:46:02.409Z,74.30
2018-07-01T04:48:04.519Z,74.80
2018-07-01T04:50:06.639Z,74.60
2018-07-01T04:52:08.731Z,73.50
2018-07-01T04:54:10.998Z,73.50
2018-07-01T04:56:13.093Z,74.90
2018-07-01T04:58:15.194Z,74.40
2018-07-01T05:00:17.318Z,74.00
2018-07-01T05:02:19.454Z,74.40
2018-07-01T05:04:21.497Z,74.90
2018-07-01T05:06:23.573Z,74.90
2018-07-01T05:08:25.682Z,73.60
2018-07-01T05:10:27.850Z,72.90
2018-07-01T05:12:29.926Z,73.70
2018-07-01T05:14:32.246Z,73.90
2018-07-01T05:16:34.630Z,73.30
2018-07-01T05:18:36.731Z,72.70
2018-07-01T05:20:38.794Z,71.70
2018-07-01T05:22:40.889Z,72.00
2018-07-01T05:24:42.957Z,71.20
2018-07-01T05:26:45.063Z,70.90
2018-07-01T05:28:47.167Z,70.60
2018-07-01T05:30:49.300Z,69.90
2018-07-01T05:32:51.416Z,70.90
2018-07-01T05:34:53.561Z,70.20
2018-07-01T05:36:55.645Z,69.40
2018-07-01T05:38:57.762Z,69.30
2018-07-01T05:40:59.894Z,68.70
2018-07-01T05:43:01.982Z,68.70
2018-07-01T05:45:04.090Z,68.30
2018-07-01T05:47:06.313Z,67.90
2018-07-01T05:49:08.509Z,67.60
2018-07-01T05:51:22.984Z,67.70
2018-07-01T05:53:25.178Z,68.30
2018-07-01T05:55:28.090Z,68.20
2018-07-01T05:57:30.398Z,67.70
2018-07-01T05:59:32.568Z,67.60
2018-07-01T06:01:34.708Z,67.60
2018-07-01T06:03:36.847Z,67.20
2018-07-01T06:05:39.122Z,67.00
2018-07-01T06:07:47.731Z,67.80
2018-07-01T06:09:49.890Z,68.00
2018-07-01T06:11:52.305Z,67.40
2018-07-01T06:13:54.575Z,68.50
2018-07-01T06:15:56.704Z,67.60
2018-07-01T06:17:58.839Z,67.60
2018-07-01T06:20:01.033Z,67.50
2018-07-01T06:22:03.232Z,67.40
2018-07-01T06:24:05.432Z,67.20
2018-07-01T06:26:07.657Z,68.10
2018-07-01T06:28:09.818Z,67.70
2018-07-01T06:30:12.241Z,67.60
2018-07-01T06:32:14.533Z,67.50
2018-07-01T06:34:16.695Z,67.00
2018-07-01T06:36:18.841Z,65.80
2018-07-01T06:38:20.969Z,66.30
2018-07-01T06:40:23.075Z,64.80
2018-07-01T06:42:25.463Z,64.00
2018-07-01T06:44:27.663Z,63.40
2018-07-01T06:46:29.812Z,63.70
2018-07-01T06:48:31.976Z,63.70
2018-07-01T06:50:34.115Z,64.10
2018-07-01T06:52:36.370Z,63.10
2018-07-01T06:54:38.547Z,63.10
2018-07-01T06:56:42.595Z,61.50
2018-07-01T06:58:44.748Z,60.60
2018-07-01T07:00:46.898Z,61.00
2018-07-01T07:02:49.079Z,60.10
2018-07-01T07:04:51.362Z,58.20
2018-07-01T07:06:53.634Z,58.70
2018-07-01T07:08:57.676Z,56.30
2018-07-01T07:10:59.829Z,57.30
2018-07-01T07:13:02.259Z,57.40
2018-07-01T07:15:04.606Z,56.60
2018-07-01T07:17:06.842Z,56.30
2018-07-01T07:19:09.003Z,55.30
2018-07-01T07:21:11.314Z,54.80
2018-07-01T07:23:13.641Z,53.70
2018-07-01T07:25:15.820Z,53.70
2018-07-01T07:27:18.020Z,53.20
2018-07-01T07:29:20.168Z,53.10
2018-07-01T07:31:22.354Z,53.20
2018-07-01T07:33:24.549Z,53.20
2018-07-01T07:35:26.707Z,52.90
2018-07-01T07:37:28.882Z,51.90
2018-07-01T07:39:31.018Z,51.30
2018-07-01T07:41:33.191Z,50.90
2018-07-01T07:43:35.394Z,48.80
2018-07-01T07:45:37.549Z,49.10
2018-07-01T07:47:39.678Z,48.10
2018-07-01T07:49:42.084Z,49.20
2018-07-01T07:51:44.211Z,48.50
2018-07-01T07:53:46.345Z,49.30
2018-07-01T07:55:48.516Z,50.30
2018-07-01T07:57:50.680Z,49.70
2018-07-01T07:59:52.831Z,51.10
2018-07-01T08:01:55.258Z,51.70
2018-07-01T08:03:57.605Z,50.60
2018-07-01T08:05:59.786Z,50.40
2018-07-01T08:08:02.010Z,50.50
2018-07-01T08:10:04.194Z,50.90
2018-07-01T08:12:06.374Z,50.60
2018-07-01T08:14:08.934Z,50.60
2018-07-01T08:16:11.169Z,50.60
2018-07-01T08:18:13.333Z,50.90
2018-07-01T08:20:15.558Z,50.80
2018-07-01T08:22:17.789Z,49.90
2018-07-01T08:24:20.003Z,48.10
2018-07-01T08:26:22.226Z,47.90
2018-07-01T08:28:24.575Z,48.10
2018-07-01T08:30:26.791Z,46.40
2018-07-01T08:32:28.990Z,46.80
2018-07-01T08:34:31.233Z,46.80
2018-07-01T08:36:33.388Z,45.80
2018-07-01T08:38:35.614Z,46.60
2018-07-01T08:40:37.763Z,44.50
2018-07-01T08:42:39.970Z,45.50
2018-07-01T08:44:42.141Z,45.10
2018-07-01T08:46:44.350Z,45.70
2018-07-01T08:48:46.542Z,45.00
2018-07-01T08:50:48.727Z,44.90
2018-07-01T08:52:50.988Z,44.40
2018-07-01T08:54:53.082Z,44.60
2018-07-01T08:56:55.258Z,44.70
2018-07-01T08:58:57.722Z,44.60
2018-07-01T09:00:59.876Z,44.10
2018-07-01T09:03:02.076Z,44.60
2018-07-01T09:05:04.554Z,44.90
2018-07-01T09:07:06.686Z,44.80
2018-07-01T09:09:08.879Z,46.20
2018-07-01T09:11:11.070Z,46.10
2018-07-01T09:13:13.521Z,45.60
2018-07-01T09:15:15.710Z,45.80
2018-07-01T09:17:17.874Z,46.00
2018-07-01T09:19:20.158Z,46.50
2018-07-01T09:21:22.314Z,45.40
2018-07-01T09:23:24.520Z,46.40
2018-07-01T09:25:26.686Z,46.50
2018-07-01T09:27:28.902Z,45.80
2018-07-01T09:29:31.091Z,46.30
2018-07-01T09:31:33.913Z,46.40
2018-07-01T09:33:36.107Z,45.80
2018-07-01T09:35:38.370Z,45.60
2018-07-01T09:37:41.422Z,46.10
2018-07-01T09:39:43.750Z,46.00
2018-07-01T09:41:46.458Z,45.50
2018-07-01T09:43:48.734Z,44.20
2018-07-01T09:45:50.911Z,44.40
2018-07-01T09:47:53.046Z,44.80
2018-07-01T09:49:55.643Z,45.70
2018-07-01T09:51:58.545Z,44.50
2018-07-01T09:54:01.254Z,44.80
2018-07-01T09:56:03.594Z,44.40
2018-07-01T09:58:05.816Z,45.10
2018-07-01T10:00:08.008Z,44.00
2018-07-01T10:02:10.575Z,43.70
2018-07-01T10:04:13.403Z,42.90
2018-07-01T10:06:16.146Z,44.10
2018-07-01T10:08:18.662Z,43.00
2018-07-01T10:10:20.822Z,43.50
2018-07-01T10:12:22.973Z,42.20
2018-07-01T10:14:28.636Z,42.80
2018-07-01T10:16:31.023Z,43.00
2018-07-01T10:18:42.447Z,42.90
2018-07-01T10:20:44.555Z,43.50
2018-07-01T10:22:47.006Z,43.40
2018-07-01T10:24:49.182Z,43.30
2018-07-01T10:26:51.330Z,43.70
2018-07-01T10:28:59.610Z,44.20
2018-07-01T10:31:01.831Z,43.30
2018-07-01T10:33:04.097Z,43.20
2018-07-01T10:35:06.614Z,43.50
2018-07-01T10:37:09.556Z,43.90
2018-07-01T10:39:14.248Z,44.10
2018-07-01T10:41:16.444Z,43.80
2018-07-01T10:43:18.625Z,44.00
2018-07-01T10:45:20.809Z,43.40
2018-07-01T10:47:23.050Z,42.90
2018-07-01T10:49:25.218Z,43.30
2018-07-01T10:51:27.427Z,43.30
2018-07-01T10:53:29.578Z,43.60
2018-07-01T10:55:31.816Z,42.00
2018-07-01T10:57:34.029Z,42.40
2018-07-01T10:59:36.201Z,42.40
2018-07-01T11:01:38.382Z,41.60
2018-07-01T11:03:40.621Z,42.50
2018-07-01T11:05:42.771Z,41.50
2018-07-01T11:07:44.974Z,42.10
2018-07-01T11:09:47.144Z,42.10
2018-07-01T11:11:49.397Z,41.10
2018-07-01T11:13:51.669Z,42.90
2018-07-01T11:15:53.834Z,42.60
2018-07-01T11:17:56.050Z,40.40
2018-07-01T11:19:58.402Z,41.10
2018-07-01T11:22:00.571Z,40.70
2018-07-01T11:24:02.839Z,40.10
2018-07-01T11:26:05.137Z,39.60
2018-07-01T11:28:07.290Z,40.70
2018-07-01T11:30:09.479Z,39.90
2018-07-01T11:32:11.642Z,40.40
2018-07-01T11:34:13.878Z,41.60
2018-07-01T11:36:16.082Z,40.40
2018-07-01T11:38:18.391Z,40.10
2018-07-01T11:40:20.518Z,41.40
2018-07-01T11:42:22.736Z,42.30
2018-07-01T11:44:24.925Z,41.60
2018-07-01T11:46:27.469Z,41.80
2018-07-01T11:48:29.635Z,42.70
2018-07-01T11:50:31.862Z,41.20
2018-07-01T11:52:34.040Z,40.20
2018-07-01T11:54:36.229Z,39.40
2018-07-01T11:58:40.576Z,40.40
2018-07-01T12:00:42.728Z,40.10
2018-07-01T12:02:44.965Z,38.60
2018-07-01T12:05:02.954Z,37.70
2018-07-01T12:06:49.307Z,37.80
2018-07-01T12:10:53.636Z,38.30
2018-07-01T12:12:55.874Z,38.50
2018-07-01T12:14:58.066Z,38.20
2018-07-01T12:17:00.967Z,37.80
2018-07-01T12:19:05.263Z,37.70
2018-07-01T12:21:07.504Z,37.40
2018-07-01T12:23:09.715Z,38.10
2018-07-01T12:25:11.943Z,37.50
2018-07-01T12:29:16.326Z,38.70
2018-07-01T12:31:18.683Z,39.80
2018-07-01T12:33:20.883Z,40.80
2018-07-01T12:35:23.055Z,41.10
2018-07-01T12:37:25.209Z,40.40
2018-07-01T12:39:27.378Z,38.00
2018-07-01T12:41:29.549Z,37.90
2018-07-01T12:43:31.741Z,36.50
2018-07-01T12:45:34.140Z,39.00
2018-07-01T12:47:36.326Z,38.90
2018-07-01T12:49:38.502Z,37.30
2018-07-01T12:51:41.362Z,37.30
2018-07-01T12:53:43.696Z,35.00
2018-07-01T12:55:46.106Z,35.80
2018-07-01T12:57:48.255Z,37.20
2018-07-01T12:59:50.638Z,36.60
2018-07-01T13:01:52.827Z,35.80
2018-07-01T13:03:55.018Z,36.60
2018-07-01T13:05:57.609Z,37.60
2018-07-01T13:07:59.790Z,36.30
2018-07-01T13:10:02.011Z,36.70
2018-07-01T13:12:04.506Z,35.90
2018-07-01T13:14:06.712Z,34.80
2018-07-01T13:16:08.925Z,34.50
2018-07-01T13:18:11.666Z,35.90
2018-07-01T13:20:13.831Z,34.50
2018-07-01T13:22:16.003Z,33.70
2018-07-01T13:24:18.533Z,34.00
2018-07-01T13:26:20.769Z,33.80
2018-07-01T13:28:22.917Z,33.00
2018-07-01T13:30:25.154Z,32.70
2018-07-01T13:32:27.403Z,32.20
2018-07-01T13:34:29.639Z,32.40
2018-07-01T13:36:31.789Z,32.50
2018-07-01T13:38:33.972Z,32.10
2018-07-01T13:40:36.926Z,31.90
2018-07-01T13:42:39.237Z,31.10
2018-07-01T13:44:41.406Z,30.00
2018-07-01T13:46:43.666Z,31.00
2018-07-01T13:48:45.865Z,30.90
2018-07-01T13:50:48.047Z,31.10
2018-07-01T13:52:50.241Z,30.40
2018-07-01T13:54:52.537Z,30.80
2018-07-01T13:56:55.693Z,31.70
2018-07-01T13:58:57.839Z,31.10
2018-07-01T14:01:00.076Z,31.50
2018-07-01T14:03:02.236Z,31.20
2018-07-01T14:05:04.441Z,32.00
2018-07-01T14:07:06.599Z,32.20
2018-07-01T14:09:10.095Z,31.10
2018-07-01T14:11:12.294Z,30.90
2018-07-01T14:13:14.769Z,29.90
2018-07-01T14:15:16.965Z,30.50
2018-07-01T14:17:19.142Z,29.60
2018-07-01T14:19:21.363Z,28.60
2018-07-01T14:21:23.618Z,29.00
2018-07-01T14:23:25.782Z,28.40
2018-07-01T14:25:28.042Z,28.40
2018-07-01T14:27:30.260Z,28.90
2018-07-01T14:29:32.443Z,28.80
2018-07-01T14:31:34.786Z,28.60
2018-07-01T14:33:36.970Z,29.20
2018-07-01T14:35:39.208Z,27.70
2018-07-01T14:37:41.329Z,27.50
2018-07-01T14:39:43.517Z,27.10
2018-07-01T14:41:45.739Z,28.30
2018-07-01T14:43:47.917Z,28.90
2018-07-01T14:45:50.223Z,30.10
2018-07-01T14:47:52.415Z,31.10
2018-07-01T14:49:54.602Z,31.40
2018-07-01T14:51:56.913Z,32.10
2018-07-01T14:53:59.081Z,32.10
2018-07-01T14:56:01.250Z,32.00
2018-07-01T14:58:03.428Z,32.40
2018-07-01T15:00:05.675Z,33.20
2018-07-01T15:02:07.818Z,33.80
2018-07-01T15:04:10.012Z,33.80
2018-07-01T15:06:13.074Z,33.90
2018-07-01T15:08:17.358Z,33.90
2018-07-01T15:10:19.536Z,34.10
2018-07-01T15:12:21.766Z,34.10
2018-07-01T15:14:23.937Z,34.60
2018-07-01T15:16:26.154Z,34.20
2018-07-01T15:18:28.578Z,34.90
2018-07-01T15:20:30.851Z,35.60
2018-07-01T15:22:33.084Z,36.40
2018-07-01T15:24:35.242Z,37.40
2018-07-01T15:26:37.393Z,38.10
2018-07-01T15:28:40.156Z,38.80
2018-07-01T15:30:43.049Z,39.50
2018-07-01T15:32:45.941Z,41.30
2018-07-01T15:34:48.185Z,41.00
2018-07-01T15:36:50.431Z,41.40
2018-07-01T15:38:52.659Z,41.50
2018-07-01T15:40:54.874Z,41.90
2018-07-01T15:42:57.042Z,42.00
2018-07-01T15:44:59.446Z,42.20
2018-07-01T15:47:01.646Z,43.40
2018-07-01T15:49:03.860Z,44.10
2018-07-01T15:51:06.279Z,43.80
2018-07-01T15:53:08.449Z,41.70
2018-07-01T15:55:10.614Z,42.00
2018-07-01T15:57:12.805Z,43.00
2018-07-01T15:59:15.156Z,43.40
2018-07-01T16:01:17.433Z,43.70
2018-07-01T16:03:20.922Z,44.20
2018-07-01T16:05:23.099Z,44.20
2018-07-01T16:07:25.293Z,44.20
2018-07-01T16:09:27.542Z,44.30
2018-07-01T16:11:29.705Z,44.80
2018-07-01T16:13:32.146Z,43.70
2018-07-01T16:15:34.426Z,43.80
2018-07-01T16:17:36.595Z,44.50
2018-07-01T16:19:38.831Z,44.30
2018-07-01T16:21:41.005Z,45.00
2018-07-01T16:23:43.207Z,45.10
2018-07-01T16:26:54.037Z,45.50
2018-07-01T16:28:59.953Z,46.00
2018-07-01T16:31:02.471Z,46.10
2018-07-01T16:33:04.789Z,46.50
2018-07-01T16:35:06.957Z,46.80
2018-07-01T16:37:09.787Z,45.30
2018-07-01T16:39:12.437Z,45.60
2018-07-01T16:41:14.595Z,46.00
2018-07-01T16:43:16.721Z,47.00
2018-07-01T16:45:19.051Z,47.30
2018-07-01T16:47:21.218Z,47.10
2018-07-01T16:49:23.439Z,47.00
2018-07-01T16:51:25.618Z,46.90
2018-07-01T16:53:27.989Z,46.30
2018-07-01T16:55:30.160Z,46.60
2018-07-01T16:57:32.285Z,46.50
2018-07-01T17:01:36.846Z,46.40
2018-07-01T17:03:39.387Z,46.20
2018-07-01T17:05:41.535Z,46.90
2018-07-01T17:07:43.702Z,47.80
2018-07-01T17:09:45.838Z,47.40
2018-07-01T17:11:48.145Z,46.90
2018-07-01T17:13:50.442Z,47.00
2018-07-01T17:15:52.589Z,47.70
2018-07-01T17:17:54.751Z,48.00
2018-07-01T17:20:04.209Z,48.00
2018-07-01T17:22:06.404Z,48.30
2018-07-01T17:24:08.698Z,48.40
2018-07-01T17:26:10.972Z,48.80
2018-07-01T17:28:13.149Z,49.00
2018-07-01T17:30:15.297Z,48.90
2018-07-01T17:32:23.130Z,49.10
2018-07-01T17:34:25.321Z,49.30
2018-07-01T17:36:27.522Z,49.50
2018-07-01T17:38:29.882Z,49.70
2018-07-01T17:40:32.055Z,49.60
2018-07-01T17:42:34.239Z,50.10
2018-07-01T17:44:36.411Z,50.30
2018-07-01T17:46:38.630Z,50.00
2018-07-01T17:48:40.779Z,49.90
2018-07-01T17:50:43.034Z,50.10
2018-07-01T17:52:45.206Z,50.30
2018-07-01T17:54:47.377Z,50.40
2018-07-01T17:56:49.768Z,50.20
2018-07-01T17:58:52.909Z,50.60
2018-07-01T18:00:55.090Z,50.70
2018-07-01T18:02:57.299Z,50.60
2018-07-01T18:04:59.482Z,50.70
2018-07-01T18:07:01.686Z,50.70
2018-07-01T18:09:06.462Z,50.90
2018-07-01T18:11:08.657Z,51.10
2018-07-01T18:13:10.881Z,50.30
2018-07-01T18:15:13.054Z,50.40
2018-07-01T18:17:15.326Z,50.40
2018-07-01T18:19:17.503Z,50.60
2018-07-01T18:21:20.996Z,50.80
2018-07-01T18:23:53.706Z,50.80
2018-07-01T18:25:24.398Z,51.00
2018-07-01T18:27:26.677Z,51.20
2018-07-01T18:29:28.867Z,51.50
2018-07-01T18:31:31.075Z,51.30
2018-07-01T18:33:33.242Z,50.90
2018-07-01T18:35:35.637Z,51.20
2018-07-01T18:37:37.846Z,51.50
2018-07-01T18:39:40.074Z,51.40
2018-07-01T18:41:42.417Z,51.30
2018-07-01T18:43:44.613Z,51.70
2018-07-01T18:45:46.769Z,52.00
2018-07-01T18:47:50.241Z,51.50
2018-07-01T18:49:52.393Z,51.50
2018-07-01T18:51:54.754Z,51.80
2018-07-01T18:53:56.916Z,52.10
2018-07-01T18:55:59.103Z,51.90
2018-07-01T18:58:01.690Z,52.10
2018-07-01T19:00:05.056Z,52.00
2018-07-01T19:02:07.278Z,52.00
2018-07-01T19:04:53.629Z,52.10
2018-07-01T19:06:57.240Z,53.00
2018-07-01T19:08:59.418Z,52.30
2018-07-01T19:11:01.767Z,52.40
2018-07-01T19:13:06.048Z,52.50
2018-07-01T19:15:08.260Z,52.90
2018-07-01T19:17:10.647Z,53.30
2018-07-01T19:19:12.838Z,53.40
2018-07-01T19:21:18.282Z,53.10
2018-07-01T19:23:20.498Z,53.20
2018-07-01T19:25:23.443Z,53.40
2018-07-01T19:27:31.362Z,53.20
2018-07-01T19:29:33.586Z,53.70
2018-07-01T19:31:35.850Z,53.80
2018-07-01T19:33:38.062Z,54.10
2018-07-01T19:35:40.479Z,54.10
2018-07-01T19:37:42.666Z,54.20
2018-07-01T19:39:44.830Z,54.50
2018-07-01T19:41:47.049Z,54.40
2018-07-01T19:43:49.266Z,54.40
2018-07-01T19:45:51.466Z,54.70
2018-07-01T19:47:53.854Z,54.70
2018-07-01T19:49:56.484Z,54.70
2018-07-01T19:51:58.660Z,54.70
2018-07-01T19:54:00.852Z,55.10
2018-07-01T19:56:06.140Z,55.30
2018-07-01T19:58:08.318Z,55.10
2018-07-01T20:00:10.593Z,55.30
2018-07-01T20:02:12.880Z,55.70
2018-07-01T20:04:15.764Z,55.80
2018-07-01T20:06:18.040Z,55.70
2018-07-01T20:08:20.266Z,55.80
2018-07-01T20:10:22.618Z,56.10
2018-07-01T20:12:24.885Z,56.40
2018-07-01T20:14:27.110Z,56.70
2018-07-01T20:16:29.366Z,57.50
2018-07-01T20:18:31.691Z,57.20
2018-07-01T20:20:33.819Z,57.40
2018-07-01T20:22:36.284Z,57.70
2018-07-01T20:24:38.477Z,57.80
2018-07-01T20:26:40.662Z,58.20
2018-07-01T20:28:42.830Z,58.40
2018-07-01T20:30:44.978Z,58.00
2018-07-01T20:34:49.349Z,59.20
2018-07-01T20:36:51.554Z,59.20
2018-07-01T20:38:53.820Z,59.30
2018-07-01T20:40:56.100Z,59.40
2018-07-01T20:42:58.291Z,59.30
2018-07-01T20:45:00.500Z,60.10
2018-07-01T20:47:02.730Z,60.20
2018-07-01T20:49:06.103Z,60.40
2018-07-01T20:51:08.339Z,60.60
2018-07-01T20:53:13.457Z,61.30
2018-07-01T20:55:15.641Z,61.00
2018-07-01T20:57:17.810Z,61.20
2018-07-01T20:59:20.162Z,61.40
2018-07-01T21:01:22.301Z,61.00
2018-07-01T21:03:24.449Z,61.40
2018-07-01T21:05:27.003Z,61.70
2018-07-01T21:07:29.113Z,62.00
2018-07-01T21:09:31.246Z,61.60
2018-07-01T21:11:33.401Z,62.00
2018-07-01T21:13:35.538Z,62.50
2018-07-01T21:15:37.835Z,62.70
2018-07-01T21:17:40.090Z,62.90
2018-07-01T21:19:42.168Z,63.30
2018-07-01T21:21:44.351Z,63.70
2018-07-01T21:23:46.534Z,64.00
2018-07-01T21:25:48.723Z,64.40
2018-07-01T21:27:50.866Z,64.50
2018-07-01T21:29:53.041Z,65.10
2018-07-01T21:31:55.211Z,65.00
2018-07-01T21:33:57.368Z,65.10
2018-07-01T21:35:59.666Z,65.30
2018-07-01T21:38:01.816Z,65.30
2018-07-01T21:40:03.957Z,65.80
2018-07-01T21:42:06.098Z,65.80
2018-07-01T21:44:08.541Z,65.80
2018-07-01T21:46:10.707Z,66.00
2018-07-01T21:48:13.018Z,66.00
2018-07-01T21:50:15.197Z,66.50
2018-07-01T21:52:17.347Z,66.50
2018-07-01T21:54:19.478Z,66.60
2018-07-01T21:56:21.637Z,66.80
2018-07-01T21:58:23.784Z,66.70
2018-07-01T22:00:32.928Z,67.40
2018-07-01T22:02:35.297Z,67.60
2018-07-01T22:04:37.369Z,68.00
2018-07-01T22:06:45.307Z,68.00
2018-07-01T22:08:47.498Z,67.90
2018-07-01T22:11:01.194Z,68.10
2018-07-01T22:13:13.665Z,68.50
2018-07-01T22:15:27.746Z,68.70
2018-07-01T22:17:29.830Z,68.70
2018-07-01T22:19:32.034Z,68.80
2018-07-01T22:21:34.144Z,69.00
2018-07-01T22:23:36.230Z,69.10
2018-07-01T22:25:38.317Z,69.70
2018-07-01T22:27:40.438Z,69.40
2018-07-01T22:29:42.542Z,69.30
2018-07-01T22:31:44.654Z,69.70
2018-07-01T22:33:46.957Z,69.70
2018-07-01T22:35:49.038Z,70.00
2018-07-01T22:37:51.113Z,71.00
2018-07-01T22:39:53.298Z,71.20
2018-07-01T22:41:56.327Z,71.40
2018-07-01T22:43:58.421Z,71.00
2018-07-01T22:46:00.513Z,71.10
2018-07-01T22:48:02.573Z,70.90
2018-07-01T22:50:04.690Z,71.80
2018-07-01T22:52:06.850Z,71.70
2018-07-01T22:54:08.997Z,71.30
2018-07-01T22:56:11.073Z,71.70
2018-07-01T22:58:13.158Z,72.20
2018-07-01T23:00:15.271Z,72.20
2018-07-01T23:02:56.663Z,72.30
2018-07-01T23:04:58.756Z,72.70
2018-07-01T23:07:00.830Z,72.90
2018-07-01T23:09:04.537Z,72.80
2018-07-01T23:11:06.634Z,73.30
2018-07-01T23:13:08.757Z,73.70
2018-07-01T23:15:11.274Z,73.40
2018-07-01T23:17:13.373Z,73.20
2018-07-01T23:19:15.429Z,73.40
2018-07-01T23:21:17.517Z,72.90
2018-07-01T23:23:19.611Z,72.90
2018-07-01T23:25:21.686Z,73.20
2018-07-01T23:27:23.772Z,73.50
2018-07-01T23:29:25.849Z,73.20
2018-07-01T23:31:27.934Z,73.10
2018-07-01T23:33:30.101Z,73.30
2018-07-01T23:35:32.176Z,73.30
2018-07-01T23:37:34.313Z,73.30
2018-07-01T23:39:36.390Z,73.40
2018-07-01T23:41:38.473Z,73.30
2018-07-01T23:43:40.582Z,73.60
2018-07-01T23:45:42.689Z,73.30
2018-07-01T23:47:44.765Z,73.90
2018-07-01T23:49:46.867Z,74.40
2018-07-01T23:51:48.971Z,74.80
2018-07-01T23:53:51.043Z,75.10
2018-07-01T23:55:53.154Z,75.10
2018-07-01T23:57:55.250Z,75.30
2018-07-01T23:59:57.368Z,75.90
